Time;durP1;ratioP1;P1;durP2;ratioP2;P2;SDS_P1;SDS_P2;PMS_P1;PMS_P2;Temp;Humidity;BMP_temperature;BMP_pressure;BME280_temperature;BME280_humidity;BME280_pressure;Samples;Min_cycle;Max_cycle;Signal;HPM_P1;HPM_P2
2022/10/04 00:01:06;;;;;;;12.68;4.70;;;12.80;99.90;;;;;;5122549;27;20404;-73
2022/10/04 00:03:51;;;;;;;10.83;5.00;;;12.80;99.90;;;;;;5121206;27;20405;-73
2022/10/04 00:06:23;;;;;;;11.77;5.05;;;12.80;99.90;;;;;;5097240;28;20469;-73
2022/10/04 00:09:13;;;;;;;11.75;4.75;;;12.80;99.90;;;;;;5109522;28;20466;-74
2022/10/04 00:11:43;;;;;;;9.93;4.80;;;12.80;99.90;;;;;;5121141;27;20422;-74
2022/10/04 00:14:18;;;;;;;13.80;5.40;;;12.80;99.90;;;;;;5128469;27;20473;-73
2022/10/04 00:16:44;;;;;;;10.65;5.00;;;12.80;99.90;;;;;;5118260;27;20481;-74
2022/10/04 00:19:19;;;;;;;13.48;5.60;;;12.80;99.90;;;;;;5113107;27;20961;-73
2022/10/04 00:21:55;;;;;;;8.32;4.72;;;12.80;99.90;;;;;;5110984;27;20397;-73
2022/10/04 00:24:32;;;;;;;10.98;5.13;;;12.80;99.90;;;;;;5113218;27;20421;-73
2022/10/04 00:27:23;;;;;;;13.27;5.60;;;12.80;99.90;;;;;;5128957;27;20777;-73
2022/10/04 00:30:22;;;;;;;12.93;5.28;;;12.70;99.90;;;;;;5107880;27;20886;-73
2022/10/04 00:33:08;;;;;;;10.85;5.65;;;12.70;99.90;;;;;;5109165;27;20884;-74
2022/10/04 00:35:34;;;;;;;13.93;5.60;;;12.70;99.90;;;;;;5126148;27;20410;-72
2022/10/04 00:38:05;;;;;;;11.95;5.43;;;12.70;99.90;;;;;;5116441;27;20402;-73
2022/10/04 00:40:45;;;;;;;12.50;5.43;;;12.70;99.90;;;;;;5126939;27;20734;-73
2022/10/04 00:43:26;;;;;;;12.40;5.20;;;12.70;99.90;;;;;;5095554;28;20404;-73
2022/10/04 00:46:22;;;;;;;13.90;5.40;;;12.70;99.90;;;;;;5109092;27;20491;-73
2022/10/04 00:48:49;;;;;;;11.93;5.13;;;12.70;99.90;;;;;;5108796;28;20396;-74
2022/10/04 00:51:45;;;;;;;12.77;5.15;;;12.70;99.90;;;;;;5108935;27;20459;-73
2022/10/04 00:54:33;;;;;;;12.03;5.50;;;12.70;99.90;;;;;;5108933;27;20443;-75
2022/10/04 00:57:06;;;;;;;13.63;5.70;;;12.70;99.90;;;;;;5108245;28;20399;-73
2022/10/04 00:59:42;;;;;;;10.80;5.10;;;12.70;99.90;;;;;;5111354;27;20396;-73
2022/10/04 01:02:16;;;;;;;13.98;5.28;;;12.60;99.90;;;;;;5126528;27;20391;-73
2022/10/04 01:04:48;;;;;;;10.98;4.97;;;12.70;99.90;;;;;;5114407;27;20447;-72
2022/10/04 01:07:17;;;;;;;13.25;5.63;;;12.60;99.90;;;;;;5117358;27;20483;-73
2022/10/04 01:09:58;;;;;;;11.95;5.03;;;12.70;99.90;;;;;;5108336;28;20399;-73
2022/10/04 01:12:39;;;;;;;12.20;5.40;;;12.70;99.90;;;;;;5108186;28;20804;-73
2022/10/04 01:15:34;;;;;;;13.23;5.40;;;12.70;99.90;;;;;;5108404;28;20400;-72
2022/10/04 01:18:15;;;;;;;11.82;5.20;;;12.60;99.90;;;;;;5108693;27;20419;-73
2022/10/04 01:20:56;;;;;;;9.47;4.97;;;12.60;99.90;;;;;;5120500;27;20399;-72
2022/10/04 01:23:43;;;;;;;11.18;5.13;;;12.60;99.90;;;;;;5106715;28;20790;-73
2022/10/04 01:26:32;;;;;;;9.25;5.18;;;12.60;99.90;;;;;;5108460;28;20405;-73
2022/10/04 01:29:11;;;;;;;14.32;5.70;;;12.60;99.90;;;;;;5106722;28;20442;-73
2022/10/04 01:31:41;;;;;;;12.20;5.65;;;12.60;99.90;;;;;;5122704;27;20414;-73
2022/10/04 01:34:08;;;;;;;16.73;6.10;;;12.60;99.90;;;;;;5109342;27;20412;-72
2022/10/04 01:36:35;;;;;;;13.32;6.32;;;12.60;99.90;;;;;;5112599;27;20399;-73
2022/10/04 01:39:02;;;;;;;17.47;6.70;;;12.60;99.90;;;;;;5108134;27;20412;-73
2022/10/04 01:41:37;;;;;;;13.98;6.30;;;12.60;99.90;;;;;;5107970;28;20959;-73
2022/10/04 01:44:06;;;;;;;12.40;6.28;;;12.60;99.90;;;;;;5124249;27;20395;-73
2022/10/04 01:46:35;;;;;;;15.75;6.85;;;12.50;99.90;;;;;;5128225;27;20398;-73
2022/10/04 01:49:06;;;;;;;15.35;6.55;;;12.60;99.90;;;;;;5126995;27;20395;-73
2022/10/04 01:51:38;;;;;;;12.27;6.00;;;12.60;99.90;;;;;;5115499;28;20522;-73
2022/10/04 01:54:16;;;;;;;13.88;7.32;;;12.60;99.90;;;;;;5128005;27;20498;-73
2022/10/04 01:56:45;;;;;;;16.60;6.45;;;12.60;99.90;;;;;;5127774;27;20402;-73
2022/10/04 01:59:28;;;;;;;16.67;7.00;;;12.60;99.90;;;;;;5126737;27;20410;-73
2022/10/04 02:02:07;;;;;;;15.05;7.50;;;12.60;99.90;;;;;;5115165;27;20533;-73
2022/10/04 02:04:37;;;;;;;14.18;7.03;;;12.60;99.90;;;;;;5108231;28;20396;-74
2022/10/04 02:07:11;;;;;;;13.02;6.97;;;12.60;99.90;;;;;;5108325;28;20816;-73
2022/10/04 02:09:42;;;;;;;15.77;7.18;;;12.50;99.90;;;;;;5122352;28;20399;-73
2022/10/04 02:12:09;;;;;;;14.30;6.93;;;12.50;99.90;;;;;;5109315;28;20832;-73
2022/10/04 02:14:38;;;;;;;15.93;7.72;;;12.60;99.90;;;;;;5125793;27;20422;-73
2022/10/04 02:17:09;;;;;;;15.05;8.02;;;12.60;99.90;;;;;;5127954;27;20410;-73
2022/10/04 02:19:38;;;;;;;19.65;8.20;;;12.60;99.90;;;;;;5114029;27;20907;-72
2022/10/04 02:22:06;;;;;;;18.42;7.93;;;12.60;99.90;;;;;;5127897;27;20395;-73
2022/10/04 02:24:39;;;;;;;16.75;7.97;;;12.60;99.90;;;;;;5127325;27;20493;-73
2022/10/04 02:27:05;;;;;;;17.50;8.02;;;12.60;99.90;;;;;;5127521;27;20409;-72
2022/10/04 02:29:31;;;;;;;14.23;7.37;;;12.60;99.90;;;;;;5127171;27;20798;-73
2022/10/04 02:34:45;;;;;;;15.68;7.80;;;12.60;99.90;;;;;;5096008;28;20432;-73
2022/10/04 02:37:11;;;;;;;14.40;7.60;;;12.60;99.90;;;;;;5108581;28;20408;-72
2022/10/04 02:39:48;;;;;;;18.10;8.05;;;12.60;99.90;;;;;;5127150;27;20393;-73
2022/10/04 02:42:26;;;;;;;15.45;7.60;;;12.60;99.90;;;;;;5109287;27;20461;-73
2022/10/04 02:45:04;;;;;;;26.95;9.02;;;12.60;99.90;;;;;;5107276;28;20408;-73
2022/10/04 02:47:41;;;;;;;19.65;8.30;;;12.50;99.90;;;;;;5118599;27;20535;-74
2022/10/04 02:50:34;;;;;;;20.08;9.23;;;12.50;99.90;;;;;;5107541;27;20408;-73
2022/10/04 02:53:25;;;;;;;16.75;8.25;;;12.50;99.90;;;;;;5100954;28;20411;-73
2022/10/04 02:55:51;;;;;;;19.60;8.90;;;12.50;99.90;;;;;;5123231;27;20526;-73
2022/10/04 02:58:21;;;;;;;16.95;9.15;;;12.50;99.90;;;;;;5111046;27;20396;-73
2022/10/04 03:00:50;;;;;;;16.60;8.65;;;12.40;99.90;;;;;;5109351;28;20400;-73
2022/10/04 03:03:15;;;;;;;15.98;8.13;;;12.40;99.90;;;;;;5110538;28;20435;-73
2022/10/04 03:05:43;;;;;;;17.40;8.83;;;12.40;99.90;;;;;;5110864;27;20838;-73
2022/10/04 03:08:10;;;;;;;17.50;8.20;;;12.40;99.90;;;;;;5110941;27;20393;-73
2022/10/04 03:10:37;;;;;;;17.70;8.90;;;12.40;99.90;;;;;;5110627;27;20425;-73
2022/10/04 03:13:03;;;;;;;15.68;8.38;;;12.30;99.90;;;;;;5110721;28;20450;-74
2022/10/04 03:15:29;;;;;;;16.95;8.80;;;12.30;99.90;;;;;;5117155;27;20480;-73
2022/10/04 03:17:55;;;;;;;14.70;8.32;;;12.30;99.90;;;;;;5126235;27;20447;-72
2022/10/04 03:20:21;;;;;;;15.93;8.40;;;12.30;99.90;;;;;;5130869;27;20394;-74
2022/10/04 03:22:51;;;;;;;16.20;8.65;;;12.30;99.90;;;;;;5129935;27;20612;-73
2022/10/04 03:25:34;;;;;;;20.75;9.35;;;12.30;99.90;;;;;;5131129;27;20960;-73
2022/10/04 03:28:01;;;;;;;21.58;9.00;;;12.20;99.90;;;;;;5117884;27;20433;-72
2022/10/04 03:30:27;;;;;;;19.45;8.95;;;12.20;99.90;;;;;;5121500;27;20418;-73
2022/10/04 03:32:53;;;;;;;20.40;8.73;;;12.20;99.90;;;;;;5126111;27;20808;-73
2022/10/04 03:35:39;;;;;;;16.63;8.30;;;12.20;99.90;;;;;;5110650;27;20616;-73
2022/10/04 03:38:07;;;;;;;20.08;8.52;;;12.20;99.90;;;;;;5097244;27;20400;-73
2022/10/04 03:40:37;;;;;;;16.05;8.05;;;12.20;99.90;;;;;;5109909;27;20891;-73
2022/10/04 03:43:04;;;;;;;20.08;9.25;;;12.20;99.90;;;;;;5110322;28;20403;-74
2022/10/04 03:45:32;;;;;;;17.60;8.65;;;12.20;99.90;;;;;;5110238;28;20479;-73
2022/10/04 03:48:05;;;;;;;17.65;8.25;;;12.30;99.90;;;;;;5119561;27;20395;-73
2022/10/04 03:50:36;;;;;;;14.40;7.85;;;12.20;99.90;;;;;;5112311;27;21283;-73
2022/10/04 03:53:10;;;;;;;18.27;7.93;;;12.20;99.90;;;;;;5109941;27;20429;-73
2022/10/04 03:55:42;;;;;;;16.25;8.52;;;12.20;99.90;;;;;;5126002;27;20411;-74
2022/10/04 03:58:11;;;;;;;16.52;7.85;;;12.20;99.90;;;;;;5124060;27;20401;-74
2022/10/04 04:00:47;;;;;;;18.20;8.48;;;12.20;99.90;;;;;;5137660;27;20398;-74
2022/10/04 04:03:19;;;;;;;18.08;7.90;;;12.20;99.90;;;;;;5137840;27;20409;-74
2022/10/04 04:05:56;;;;;;;15.73;8.32;;;12.20;99.90;;;;;;5136191;27;20494;-74
2022/10/04 04:08:32;;;;;;;18.67;8.27;;;12.20;99.90;;;;;;5131244;27;20438;-74
2022/10/04 04:11:01;;;;;;;17.83;8.18;;;12.20;99.90;;;;;;5129137;27;20422;-73
2022/10/04 04:13:33;;;;;;;16.45;8.60;;;12.20;99.90;;;;;;5126738;27;20413;-73
2022/10/04 04:16:02;;;;;;;17.00;7.47;;;12.20;99.90;;;;;;5129096;27;20765;-73
2022/10/04 04:18:34;;;;;;;18.02;7.65;;;12.10;99.90;;;;;;5127863;27;20407;-73
2022/10/04 04:21:02;;;;;;;17.27;7.93;;;12.20;99.90;;;;;;5128179;27;20406;-73
2022/10/04 04:23:35;;;;;;;16.08;7.95;;;12.20;99.90;;;;;;5094937;28;20412;-73
2022/10/04 04:26:38;;;;;;;15.07;7.60;;;12.20;99.90;;;;;;5121669;27;20897;-74
2022/10/04 04:29:10;;;;;;;17.90;7.97;;;12.20;99.90;;;;;;5121813;27;20895;-73
2022/10/04 04:31:44;;;;;;;17.85;8.10;;;12.20;99.90;;;;;;5103696;27;20474;-73
2022/10/04 04:34:18;;;;;;;15.80;8.70;;;12.20;99.90;;;;;;5127373;27;20630;-73
2022/10/04 04:36:44;;;;;;;14.03;7.93;;;12.10;99.90;;;;;;5128428;27;20402;-73
2022/10/04 04:39:39;;;;;;;17.85;8.35;;;12.10;99.90;;;;;;5126598;27;20766;-73
2022/10/04 04:42:16;;;;;;;19.10;8.77;;;12.10;99.90;;;;;;5126661;27;20467;-73
2022/10/04 04:44:52;;;;;;;13.68;8.35;;;12.20;99.90;;;;;;5106309;27;20468;-73
2022/10/04 04:47:43;;;;;;;13.85;8.52;;;12.20;99.90;;;;;;5125184;27;21156;-73
2022/10/04 04:50:17;;;;;;;17.95;9.13;;;12.20;99.90;;;;;;5113247;27;20427;-73
2022/10/04 04:52:50;;;;;;;17.05;8.48;;;12.10;99.90;;;;;;5107237;28;20775;-73
2022/10/04 04:55:37;;;;;;;16.97;8.83;;;12.10;99.90;;;;;;5113321;27;20407;-73
2022/10/04 04:58:03;;;;;;;16.95;8.48;;;12.10;99.90;;;;;;5121117;27;20428;-73
2022/10/04 05:00:32;;;;;;;16.05;8.30;;;12.10;99.90;;;;;;5122280;27;20424;-73
2022/10/04 05:03:01;;;;;;;17.75;8.65;;;12.10;99.90;;;;;;5129046;27;20401;-73
2022/10/04 05:05:29;;;;;;;16.73;8.53;;;12.00;99.90;;;;;;5127172;27;20928;-73
2022/10/04 05:08:13;;;;;;;17.67;9.00;;;12.00;99.90;;;;;;5110180;27;20428;-73
2022/10/04 05:10:57;;;;;;;16.75;8.25;;;12.00;99.90;;;;;;5121590;27;20426;-73
2022/10/04 05:13:31;;;;;;;20.85;9.63;;;11.90;99.90;;;;;;5116831;27;20449;-73
2022/10/04 05:15:59;;;;;;;17.90;9.07;;;11.90;99.90;;;;;;5110628;27;20415;-73
2022/10/04 05:18:32;;;;;;;18.03;8.90;;;11.80;99.90;;;;;;5118971;27;20399;-73
2022/10/04 05:21:23;;;;;;;17.73;9.63;;;11.80;99.90;;;;;;5127743;27;20411;-73
2022/10/04 05:23:49;;;;;;;18.40;9.10;;;11.70;99.90;;;;;;5112387;27;20483;-73
2022/10/04 05:26:25;;;;;;;17.25;9.35;;;11.70;99.90;;;;;;5123599;27;20861;-73
2022/10/04 05:28:50;;;;;;;18.35;9.70;;;11.60;99.90;;;;;;5109612;27;20405;-73
2022/10/04 05:31:33;;;;;;;18.17;9.23;;;11.60;99.90;;;;;;5127507;27;20426;-73
2022/10/04 05:33:58;;;;;;;17.03;8.90;;;11.50;99.90;;;;;;5128088;27;20402;-73
2022/10/04 05:36:42;;;;;;;16.50;8.98;;;11.50;99.90;;;;;;5127499;27;20444;-73
2022/10/04 05:39:36;;;;;;;19.42;9.70;;;11.50;99.90;;;;;;5127443;27;20399;-73
2022/10/04 05:42:28;;;;;;;14.85;9.30;;;11.40;99.90;;;;;;5126603;27;20460;-73
2022/10/04 05:44:56;;;;;;;18.73;9.70;;;11.40;99.90;;;;;;5104926;28;20403;-72
2022/10/04 05:47:26;;;;;;;19.30;9.82;;;11.30;99.90;;;;;;5127546;27;20408;-72
2022/10/04 05:49:54;;;;;;;16.98;8.98;;;11.30;99.90;;;;;;5127025;27;20402;-72
2022/10/04 05:52:34;;;;;;;20.40;9.85;;;11.30;99.90;;;;;;5103975;27;20436;-73
2022/10/04 05:55:37;;;;;;;17.25;9.60;;;11.20;99.90;;;;;;5103863;28;20983;-73
2022/10/04 05:58:18;;;;;;;18.25;9.80;;;11.20;99.90;;;;;;5093450;28;20417;-73
2022/10/04 06:01:00;;;;;;;18.30;9.23;;;11.20;99.90;;;;;;5111908;27;20776;-72
2022/10/04 06:03:54;;;;;;;21.02;10.02;;;11.20;99.90;;;;;;5108135;28;20418;-73
2022/10/04 06:06:32;;;;;;;19.75;9.50;;;11.20;99.90;;;;;;5106463;28;20874;-73
2022/10/04 06:09:07;;;;;;;18.42;8.57;;;11.20;99.90;;;;;;5102670;27;20425;-73
2022/10/04 06:11:52;;;;;;;16.40;10.13;;;11.20;99.90;;;;;;5110005;27;20432;-72
2022/10/04 06:14:46;;;;;;;29.15;10.57;;;11.20;99.90;;;;;;5104324;28;20432;-72
2022/10/04 06:17:20;;;;;;;27.65;10.65;;;11.20;99.90;;;;;;5118463;27;20415;-72
2022/10/04 06:20:04;;;;;;;19.92;10.02;;;11.20;99.90;;;;;;5101658;28;20408;-73
2022/10/04 06:22:31;;;;;;;19.65;9.98;;;11.20;99.90;;;;;;5098507;28;20424;-72
2022/10/04 06:25:23;;;;;;;21.63;10.00;;;11.20;99.90;;;;;;5118506;28;20420;-73
2022/10/04 06:27:49;;;;;;;20.60;10.02;;;11.20;99.90;;;;;;5099748;28;20432;-73
2022/10/04 06:30:17;;;;;;;17.77;10.33;;;11.20;99.90;;;;;;5109243;28;20420;-73
2022/10/04 06:33:12;;;;;;;20.60;10.88;;;11.20;99.90;;;;;;5108717;28;20427;-73
2022/10/04 06:36:00;;;;;;;18.05;10.50;;;11.20;99.90;;;;;;5109143;28;20499;-73
2022/10/04 06:39:13;;;;;;;18.02;11.10;;;11.30;99.90;;;;;;5109182;28;20435;-73
2022/10/04 06:41:48;;;;;;;21.33;10.85;;;11.20;99.90;;;;;;5072680;27;20449;-73
2022/10/04 06:44:31;;;;;;;17.38;10.85;;;11.20;99.90;;;;;;5109804;27;20469;-73
2022/10/04 06:47:13;;;;;;;17.52;10.77;;;11.20;99.90;;;;;;5105668;28;20470;-73
2022/10/04 06:49:46;;;;;;;29.98;12.88;;;11.20;99.90;;;;;;5105086;28;20432;-73
2022/10/04 06:52:27;;;;;;;28.27;12.13;;;11.30;99.90;;;;;;5103740;28;20422;-73
2022/10/04 06:55:26;;;;;;;22.20;11.60;;;11.30;99.90;;;;;;5108560;28;20785;-73
2022/10/04 06:57:59;;;;;;;22.73;11.50;;;11.30;99.90;;;;;;5105553;28;20421;-73
2022/10/04 07:00:26;;;;;;;19.25;11.00;;;11.30;99.90;;;;;;5108047;28;20513;-73
2022/10/04 07:03:00;;;;;;;19.13;11.15;;;11.40;99.90;;;;;;5107246;28;20411;-73
2022/10/04 07:05:31;;;;;;;20.88;12.00;;;11.50;99.90;;;;;;5108285;28;20421;-73
2022/10/04 07:08:30;;;;;;;17.15;11.48;;;11.60;99.90;;;;;;5110537;28;20453;-73
2022/10/04 07:11:10;;;;;;;20.70;11.45;;;11.70;99.90;;;;;;5104636;28;20461;-74
2022/10/04 07:13:42;;;;;;;23.58;12.05;;;11.70;99.90;;;;;;5109177;28;20424;-74
2022/10/04 07:16:27;;;;;;;17.20;10.73;;;11.70;99.90;;;;;;5107832;27;20403;-74
2022/10/04 07:19:19;;;;;;;20.30;11.63;;;11.80;99.90;;;;;;5109608;27;20463;-72
2022/10/04 07:22:11;;;;;;;21.00;11.60;;;11.90;99.90;;;;;;5085942;27;20413;-73
2022/10/04 07:24:46;;;;;;;21.47;11.57;;;12.00;99.90;;;;;;5110738;28;20457;-73
2022/10/04 07:27:17;;;;;;;17.50;10.83;;;12.00;99.90;;;;;;5109462;27;20465;-73
2022/10/04 07:29:45;;;;;;;18.75;10.70;;;12.10;99.90;;;;;;5108028;27;20439;-73
2022/10/04 07:32:26;;;;;;;18.35;11.13;;;12.10;99.90;;;;;;5118255;27;20426;-73
2022/10/04 07:35:11;;;;;;;16.08;10.45;;;12.10;99.90;;;;;;5109406;27;20483;-73
2022/10/04 07:38:00;;;;;;;17.48;11.02;;;12.10;99.90;;;;;;5115119;27;20566;-73
2022/10/04 07:40:32;;;;;;;16.65;10.80;;;12.10;99.90;;;;;;5107308;28;20407;-73
2022/10/04 07:43:20;;;;;;;18.80;11.40;;;12.10;99.90;;;;;;5108503;28;20408;-73
2022/10/04 07:45:47;;;;;;;16.42;11.00;;;12.10;99.90;;;;;;5107097;28;20415;-73
2022/10/04 07:48:18;;;;;;;20.30;11.80;;;12.10;99.90;;;;;;5113541;27;20404;-74
2022/10/04 07:50:55;;;;;;;15.68;11.00;;;12.20;99.90;;;;;;5108627;28;20503;-73
2022/10/04 07:53:36;;;;;;;16.95;10.73;;;12.30;99.90;;;;;;5105552;28;20774;-75
2022/10/04 07:56:21;;;;;;;17.65;10.20;;;12.50;99.90;;;;;;5103570;28;20396;-74
2022/10/04 07:58:52;;;;;;;16.75;9.88;;;12.80;99.90;;;;;;5108321;28;20423;-74
2022/10/04 08:01:36;;;;;;;18.38;9.48;;;13.00;99.90;;;;;;5107720;28;20439;-74
2022/10/04 08:04:10;;;;;;;13.40;8.93;;;13.20;99.90;;;;;;5109702;28;20408;-74
2022/10/04 08:06:51;;;;;;;14.17;9.07;;;13.40;99.90;;;;;;5104485;28;20489;-72
2022/10/04 08:09:28;;;;;;;15.50;9.40;;;13.50;99.90;;;;;;5098429;28;20813;-74
2022/10/04 08:12:12;;;;;;;14.32;8.60;;;13.60;99.90;;;;;;5108910;28;20854;-72
2022/10/04 08:15:00;;;;;;;14.00;8.75;;;13.70;99.90;;;;;;5102390;28;20408;-73
2022/10/04 08:17:31;;;;;;;17.17;9.55;;;13.70;99.90;;;;;;5099057;28;20432;-74
2022/10/04 08:20:25;;;;;;;14.95;9.85;;;13.70;99.90;;;;;;5108414;28;20416;-72
2022/10/04 08:23:08;;;;;;;15.10;9.77;;;13.80;99.90;;;;;;5108009;28;20459;-72
2022/10/04 08:25:45;;;;;;;15.37;9.00;;;13.80;99.90;;;;;;5099827;28;20432;-72
2022/10/04 08:31:25;;;;;;;17.70;10.23;;;13.80;99.90;;;;;;5108855;28;20516;-73
2022/10/04 08:34:32;;;;;;;15.97;8.97;;;13.80;99.90;;;;;;5103349;28;20424;-74
2022/10/04 08:37:16;;;;;;;14.75;8.95;;;13.80;99.90;;;;;;5109516;28;20400;-73
2022/10/04 08:40:16;;;;;;;15.45;8.77;;;13.80;99.90;;;;;;5108890;28;20484;-73
2022/10/04 08:43:03;;;;;;;13.57;8.88;;;13.80;99.90;;;;;;5104536;27;20534;-70
2022/10/04 08:46:09;;;;;;;15.35;8.45;;;13.70;99.90;;;;;;5107605;28;20548;-70
2022/10/04 08:49:08;;;;;;;17.20;9.07;;;13.70;99.90;;;;;;5119115;27;20504;-70
2022/10/04 08:52:03;;;;;;;14.38;8.73;;;13.70;99.90;;;;;;5107067;27;20928;-70
2022/10/04 08:54:53;;;;;;;12.68;8.25;;;13.80;99.90;;;;;;5114583;27;20404;-70
2022/10/04 08:57:46;;;;;;;14.32;8.20;;;13.90;99.90;;;;;;5114293;27;20419;-70
2022/10/04 09:00:30;;;;;;;18.17;8.70;;;14.00;99.90;;;;;;5114077;27;20424;-70
2022/10/04 09:03:17;;;;;;;14.90;8.18;;;14.20;99.90;;;;;;5108990;28;20409;-70
2022/10/04 09:05:46;;;;;;;10.90;6.68;;;15.00;99.90;;;;;;5109022;27;20505;-70
2022/10/04 09:08:36;;;;;;;10.05;6.18;;;16.30;99.90;;;;;;5107221;28;20511;-71
2022/10/04 09:11:24;;;;;;;12.77;6.03;;;17.40;99.90;;;;;;5109021;28;20786;-70
2022/10/04 09:14:19;;;;;;;8.80;4.83;;;18.60;99.90;;;;;;5101209;28;21040;-71
2022/10/04 09:16:48;;;;;;;10.00;4.72;;;19.50;99.90;;;;;;5102370;28;20408;-71
2022/10/04 09:19:28;;;;;;;9.35;4.75;;;20.20;99.90;;;;;;5107498;28;20409;-71
2022/10/04 09:22:09;;;;;;;9.82;4.40;;;20.60;99.90;;;;;;5106755;28;20918;-70
2022/10/04 09:24:53;;;;;;;8.68;4.20;;;21.00;99.90;;;;;;5119946;27;20467;-71
2022/10/04 09:27:38;;;;;;;9.60;4.55;;;21.60;99.90;;;;;;5102570;28;20722;-71
2022/10/04 09:30:16;;;;;;;8.35;4.15;;;21.80;99.90;;;;;;5106863;28;20416;-71
2022/10/04 09:32:50;;;;;;;8.20;4.03;;;22.00;99.90;;;;;;5106521;28;20446;-71
2022/10/04 09:35:53;;;;;;;9.88;4.20;;;22.20;99.90;;;;;;5107328;28;20404;-71
2022/10/04 09:38:44;;;;;;;9.65;4.70;;;22.40;99.90;;;;;;5112991;27;20487;-71
2022/10/04 09:41:21;;;;;;;7.00;3.83;;;22.80;99.90;;;;;;5104335;28;20412;-71
2022/10/04 09:44:35;;;;;;;7.93;3.67;;;22.90;99.60;;;;;;5104591;28;20506;-71
2022/10/04 09:47:30;;;;;;;7.60;3.50;;;22.80;99.10;;;;;;5089749;28;20824;-70
2022/10/04 09:50:34;;;;;;;7.72;3.35;;;23.00;98.90;;;;;;5107957;28;20408;-71
2022/10/04 09:53:43;;;;;;;6.88;3.60;;;23.30;98.50;;;;;;5107983;28;21100;-71
2022/10/04 09:56:33;;;;;;;8.32;3.67;;;23.20;98.00;;;;;;5121103;27;20453;-71
2022/10/04 09:59:20;;;;;;;7.27;3.47;;;23.60;97.60;;;;;;5114297;27;20481;-71
2022/10/04 10:02:08;;;;;;;8.52;3.42;;;24.00;97.40;;;;;;5107983;28;20412;-71
2022/10/04 10:05:01;;;;;;;8.50;3.70;;;24.40;95.80;;;;;;5115927;27;21557;-70
2022/10/04 10:07:32;;;;;;;8.05;3.92;;;24.60;95.10;;;;;;5109896;28;20418;-71
2022/10/04 10:13:43;;;;;;;7.25;3.30;;;25.10;94.00;;;;;;5111751;28;20406;-71
2022/10/04 10:16:17;;;;;;;6.65;2.95;;;25.10;92.80;;;;;;5110655;27;20416;-71
2022/10/04 10:19:11;;;;;;;9.00;3.33;;;25.20;93.10;;;;;;5109879;27;20408;-72
2022/10/04 10:21:48;;;;;;;5.00;2.90;;;25.40;92.60;;;;;;5111406;28;20408;-71
2022/10/04 10:24:26;;;;;;;7.90;3.15;;;25.60;92.00;;;;;;5112275;27;20452;-71
2022/10/04 10:27:22;;;;;;;8.93;3.25;;;25.80;91.10;;;;;;5111720;27;20461;-71
2022/10/04 10:30:08;;;;;;;11.98;3.13;;;26.10;91.00;;;;;;5097357;28;20404;-71
2022/10/04 10:32:53;;;;;;;7.40;2.92;;;26.50;91.70;;;;;;5110256;28;21028;-71
2022/10/04 10:35:42;;;;;;;5.55;2.53;;;26.90;89.50;;;;;;5107617;28;20957;-71
2022/10/04 10:38:49;;;;;;;6.60;2.88;;;27.00;88.30;;;;;;5114487;28;20434;-71
2022/10/04 10:41:45;;;;;;;6.40;2.80;;;26.80;86.60;;;;;;5121650;27;20408;-71
2022/10/04 10:44:22;;;;;;;5.43;2.67;;;26.50;84.80;;;;;;5114409;28;20424;-71
2022/10/04 10:47:04;;;;;;;7.55;3.22;;;25.90;85.50;;;;;;5113007;28;20416;-71
2022/10/04 10:49:51;;;;;;;8.53;3.30;;;25.60;84.20;;;;;;5110414;28;20396;-70
2022/10/04 10:52:32;;;;;;;5.80;2.35;;;25.60;84.90;;;;;;5109652;28;20428;-70
2022/10/04 10:55:13;;;;;;;5.87;2.53;;;25.40;83.60;;;;;;5118929;27;20412;-70
2022/10/04 10:58:03;;;;;;;7.40;3.05;;;25.40;84.30;;;;;;5107357;28;20412;-71
2022/10/04 11:00:53;;;;;;;5.40;2.80;;;25.50;84.90;;;;;;5109371;28;20464;-70
2022/10/04 11:03:57;;;;;;;5.15;2.80;;;25.40;83.30;;;;;;5109875;27;20458;-71
2022/10/04 11:06:40;;;;;;;6.03;2.83;;;24.80;83.00;;;;;;5105321;28;20412;-71
2022/10/04 11:09:39;;;;;;;6.03;2.67;;;24.60;81.70;;;;;;5109574;27;20404;-72
2022/10/04 11:12:23;;;;;;;4.68;2.35;;;24.40;83.70;;;;;;5106619;27;20769;-71
2022/10/04 11:14:48;;;;;;;6.15;2.72;;;24.50;85.10;;;;;;5132286;27;20459;-71
2022/10/04 11:17:45;;;;;;;5.67;2.30;;;24.80;83.30;;;;;;5130868;27;20394;-71
2022/10/04 11:20:34;;;;;;;7.47;2.85;;;25.00;82.60;;;;;;5116769;27;20409;-71
2022/10/04 11:23:18;;;;;;;7.55;2.65;;;25.30;82.10;;;;;;5105576;27;20478;-70
2022/10/04 11:26:05;;;;;;;6.00;2.63;;;25.10;82.70;;;;;;5135145;27;20407;-71
2022/10/04 11:28:42;;;;;;;4.40;2.35;;;24.80;82.80;;;;;;5109811;27;20402;-71
2022/10/04 11:31:32;;;;;;;6.95;2.03;;;24.90;81.10;;;;;;5129408;27;20430;-71
2022/10/04 11:34:17;;;;;;;4.32;1.73;;;24.90;82.90;;;;;;5128328;27;20983;-71
2022/10/04 11:37:15;;;;;;;6.20;2.17;;;25.50;83.00;;;;;;5128656;27;20924;-71
2022/10/04 11:40:46;;;;;;;5.03;2.00;;;26.30;80.70;;;;;;5107254;27;20439;-72
2022/10/04 11:43:39;;;;;;;4.45;1.80;;;26.60;78.20;;;;;;5077547;28;20474;-71
2022/10/04 11:46:15;;;;;;;5.20;1.70;;;26.90;77.60;;;;;;5066885;28;20420;-69
2022/10/04 11:48:58;;;;;;;3.97;1.80;;;27.30;78.30;;;;;;5117290;27;20418;-71
2022/10/04 11:51:39;;;;;;;6.73;2.10;;;27.50;76.40;;;;;;5128712;27;20435;-71
2022/10/04 11:54:27;;;;;;;5.38;1.92;;;27.70;74.70;;;;;;5126748;27;20417;-71
2022/10/04 11:57:26;;;;;;;4.83;2.00;;;27.80;75.20;;;;;;5106147;28;20511;-71
2022/10/04 12:00:13;;;;;;;6.68;1.75;;;28.00;72.50;;;;;;5109290;28;20428;-71
2022/10/04 12:02:55;;;;;;;5.30;1.63;;;28.20;71.70;;;;;;5110130;28;20928;-71
2022/10/04 12:06:00;;;;;;;4.57;1.50;;;28.30;72.40;;;;;;5109341;28;20484;-71
2022/10/04 12:08:47;;;;;;;5.63;2.17;;;28.20;71.80;;;;;;5124143;27;20415;-71
2022/10/04 12:14:45;;;;;;;4.45;1.88;;;28.20;70.70;;;;;;5110164;28;20408;-71
2022/10/04 12:17:42;;;;;;;4.07;1.23;;;28.20;71.50;;;;;;5100496;28;20491;-71
2022/10/04 12:20:28;;;;;;;5.22;1.65;;;28.60;71.10;;;;;;5111928;27;20413;-71
2022/10/04 12:23:15;;;;;;;4.03;1.63;;;29.00;68.10;;;;;;5112289;27;20423;-71
2022/10/04 12:25:57;;;;;;;5.45;1.95;;;29.00;66.70;;;;;;5106846;28;20409;-70
2022/10/04 12:29:12;;;;;;;5.03;1.58;;;28.90;68.00;;;;;;5107957;28;20406;-71
2022/10/04 12:31:48;;;;;;;6.15;2.15;;;29.20;67.70;;;;;;5103564;27;20826;-70
2022/10/04 12:34:53;;;;;;;4.63;1.80;;;29.20;65.50;;;;;;5113377;27;20409;-70
2022/10/04 12:37:42;;;;;;;4.97;1.90;;;29.20;66.30;;;;;;5112355;27;20429;-70
2022/10/04 12:40:36;;;;;;;6.15;1.85;;;29.10;66.30;;;;;;5120245;27;20439;-70
2022/10/04 12:43:29;;;;;;;5.28;1.77;;;29.20;65.80;;;;;;5106946;27;20488;-70
2022/10/04 12:46:01;;;;;;;6.10;1.70;;;29.20;67.10;;;;;;5122758;27;21047;-70
2022/10/04 12:49:03;;;;;;;5.87;1.90;;;29.50;66.70;;;;;;5109747;28;20776;-70
2022/10/04 12:51:44;;;;;;;4.95;2.10;;;29.70;64.90;;;;;;5112074;27;20479;-70
2022/10/04 12:54:22;;;;;;;5.75;1.73;;;29.80;63.20;;;;;;5119829;27;20404;-70
2022/10/04 12:57:00;;;;;;;4.13;1.20;;;29.60;63.50;;;;;;5118889;27;21062;-70
2022/10/04 12:59:32;;;;;;;6.45;1.95;;;29.70;63.70;;;;;;5108327;28;20499;-70
2022/10/04 13:02:13;;;;;;;6.45;2.35;;;29.80;62.90;;;;;;5109135;28;20405;-71
2022/10/04 13:04:54;;;;;;;6.00;2.30;;;29.60;63.10;;;;;;5119085;27;20498;-71
2022/10/04 13:07:40;;;;;;;5.50;2.25;;;29.30;64.00;;;;;;5109242;28;20413;-71
2022/10/04 13:10:29;;;;;;;5.20;2.20;;;29.50;65.00;;;;;;5109151;28;20918;-71
2022/10/04 13:13:40;;;;;;;4.47;2.03;;;29.80;64.10;;;;;;5108634;28;20487;-71
2022/10/04 13:16:21;;;;;;;6.30;2.55;;;29.50;63.40;;;;;;5097467;28;20412;-74
2022/10/04 13:18:59;;;;;;;6.90;2.58;;;28.90;62.70;;;;;;5116846;27;20509;-70
2022/10/04 13:21:40;;;;;;;5.25;2.28;;;28.40;63.20;;;;;;5102609;27;20427;-70
2022/10/04 13:24:14;;;;;;;5.78;2.13;;;27.90;63.30;;;;;;5100927;28;20952;-70
2022/10/04 13:26:53;;;;;;;6.03;2.25;;;27.60;63.10;;;;;;5106635;28;20419;-69
2022/10/04 13:29:28;;;;;;;5.25;2.40;;;27.20;63.70;;;;;;5106026;28;20416;-69
2022/10/04 13:32:17;;;;;;;6.35;2.53;;;26.60;65.70;;;;;;5110261;27;20460;-69
2022/10/04 13:34:48;;;;;;;6.50;2.55;;;25.90;65.90;;;;;;5107576;28;20508;-69
2022/10/04 13:37:36;;;;;;;4.60;2.10;;;25.20;66.50;;;;;;5108030;28;20414;-69
2022/10/04 13:40:29;;;;;;;5.85;2.50;;;24.60;66.60;;;;;;5106854;28;20778;-69
2022/10/04 13:43:22;;;;;;;5.78;2.15;;;23.90;67.40;;;;;;5105617;28;20415;-69
2022/10/04 13:45:57;;;;;;;5.88;2.38;;;23.60;69.30;;;;;;5110299;27;20392;-69
2022/10/04 13:48:29;;;;;;;6.40;2.75;;;23.30;70.80;;;;;;5115506;28;20407;-69
2022/10/04 13:51:26;;;;;;;6.45;3.50;;;23.00;71.40;;;;;;5108550;28;20424;-69
2022/10/04 13:57:38;;;;;;;6.50;3.35;;;22.40;73.50;;;;;;5108763;28;20503;-69
2022/10/04 14:00:17;;;;;;;7.95;3.67;;;22.30;73.70;;;;;;5107845;28;20412;-69
2022/10/04 14:02:43;;;;;;;6.00;3.40;;;22.10;73.70;;;;;;5109677;28;20465;-69